sensor_id;sensor_type;location;lat;lon;timestamp;P1;durP1;ratioP1;P2;durP2;ratioP2
62574;SDS011;77629;45.630;11.704;2024-03-29T00:00:38;29.73;;;21.85;;
62574;SDS011;77629;45.630;11.704;2024-03-29T00:03:04;26.90;;;21.23;;
62574;SDS011;77629;45.630;11.704;2024-03-29T00:05:30;25.67;;;19.58;;
62574;SDS011;77629;45.630;11.704;2024-03-29T00:07:57;30.50;;;21.63;;
62574;SDS011;77629;45.630;11.704;2024-03-29T00:10:22;27.98;;;20.65;;
62574;SDS011;77629;45.630;11.704;2024-03-29T00:12:48;31.48;;;23.48;;
62574;SDS011;77629;45.630;11.704;2024-03-29T00:15:14;28.70;;;21.23;;
62574;SDS011;77629;45.630;11.704;2024-03-29T00:17:39;31.38;;;24.00;;
62574;SDS011;77629;45.630;11.704;2024-03-29T00:20:05;26.15;;;19.40;;
62574;SDS011;77629;45.630;11.704;2024-03-29T00:22:31;30.90;;;24.23;;
62574;SDS011;77629;45.630;11.704;2024-03-29T00:24:57;27.65;;;20.63;;
62574;SDS011;77629;45.630;11.704;2024-03-29T00:27:22;26.15;;;18.92;;
62574;SDS011;77629;45.630;11.704;2024-03-29T00:29:50;29.55;;;23.25;;
62574;SDS011;77629;45.630;11.704;2024-03-29T00:32:18;29.17;;;22.08;;
62574;SDS011;77629;45.630;11.704;2024-03-29T00:34:44;31.45;;;23.38;;
62574;SDS011;77629;45.630;11.704;2024-03-29T00:37:10;31.65;;;22.77;;
62574;SDS011;77629;45.630;11.704;2024-03-29T00:39:36;30.55;;;22.77;;
62574;SDS011;77629;45.630;11.704;2024-03-29T00:42:02;28.50;;;20.80;;
62574;SDS011;77629;45.630;11.704;2024-03-29T00:44:31;29.77;;;22.00;;
62574;SDS011;77629;45.630;11.704;2024-03-29T00:46:57;26.52;;;19.98;;
62574;SDS011;77629;45.630;11.704;2024-03-29T00:49:23;26.00;;;19.63;;
62574;SDS011;77629;45.630;11.704;2024-03-29T00:51:48;28.48;;;20.98;;
62574;SDS011;77629;45.630;11.704;2024-03-29T00:54:14;30.23;;;21.30;;
62574;SDS011;77629;45.630;11.704;2024-03-29T00:56:40;24.85;;;18.80;;
62574;SDS011;77629;45.630;11.704;2024-03-29T00:59:05;31.48;;;22.95;;
62574;SDS011;77629;45.630;11.704;2024-03-29T01:01:31;32.63;;;23.65;;
62574;SDS011;77629;45.630;11.704;2024-03-29T01:03:57;29.48;;;20.17;;
62574;SDS011;77629;45.630;11.704;2024-03-29T01:06:23;33.75;;;23.75;;
62574;SDS011;77629;45.630;11.704;2024-03-29T01:08:48;27.25;;;19.67;;
62574;SDS011;77629;45.630;11.704;2024-03-29T01:11:14;30.25;;;21.80;;
62574;SDS011;77629;45.630;11.704;2024-03-29T01:13:40;33.97;;;23.05;;
62574;SDS011;77629;45.630;11.704;2024-03-29T01:16:06;31.70;;;22.10;;
62574;SDS011;77629;45.630;11.704;2024-03-29T01:18:32;28.40;;;20.50;;
62574;SDS011;77629;45.630;11.704;2024-03-29T01:20:58;30.95;;;22.30;;
62574;SDS011;77629;45.630;11.704;2024-03-29T01:23:24;29.33;;;21.55;;
62574;SDS011;77629;45.630;11.704;2024-03-29T01:25:50;28.38;;;20.90;;
62574;SDS011;77629;45.630;11.704;2024-03-29T01:28:15;27.42;;;19.85;;
62574;SDS011;77629;45.630;11.704;2024-03-29T01:30:41;32.53;;;23.20;;
62574;SDS011;77629;45.630;11.704;2024-03-29T01:33:06;30.75;;;23.02;;
62574;SDS011;77629;45.630;11.704;2024-03-29T01:35:32;32.58;;;23.35;;
62574;SDS011;77629;45.630;11.704;2024-03-29T01:37:58;27.20;;;20.40;;
62574;SDS011;77629;45.630;11.704;2024-03-29T01:40:23;29.38;;;21.20;;
62574;SDS011;77629;45.630;11.704;2024-03-29T01:42:52;27.08;;;19.67;;
62574;SDS011;77629;45.630;11.704;2024-03-29T01:45:18;32.53;;;23.92;;
62574;SDS011;77629;45.630;11.704;2024-03-29T01:47:44;34.58;;;24.45;;
62574;SDS011;77629;45.630;11.704;2024-03-29T01:50:11;34.72;;;24.75;;
62574;SDS011;77629;45.630;11.704;2024-03-29T01:52:37;32.55;;;23.38;;
62574;SDS011;77629;45.630;11.704;2024-03-29T01:55:03;30.85;;;22.90;;
62574;SDS011;77629;45.630;11.704;2024-03-29T01:57:29;29.65;;;21.13;;
62574;SDS011;77629;45.630;11.704;2024-03-29T01:59:55;27.48;;;20.25;;
62574;SDS011;77629;45.630;11.704;2024-03-29T02:02:22;27.98;;;21.70;;
62574;SDS011;77629;45.630;11.704;2024-03-29T02:04:48;35.58;;;25.25;;
62574;SDS011;77629;45.630;11.704;2024-03-29T02:07:14;34.70;;;24.95;;
62574;SDS011;77629;45.630;11.704;2024-03-29T02:09:40;37.40;;;25.80;;
62574;SDS011;77629;45.630;11.704;2024-03-29T02:12:07;38.78;;;26.35;;
62574;SDS011;77629;45.630;11.704;2024-03-29T02:14:33;37.15;;;26.52;;
62574;SDS011;77629;45.630;11.704;2024-03-29T02:16:58;34.20;;;25.52;;
62574;SDS011;77629;45.630;11.704;2024-03-29T02:19:24;37.85;;;26.30;;
62574;SDS011;77629;45.630;11.704;2024-03-29T02:21:49;32.05;;;23.23;;
62574;SDS011;77629;45.630;11.704;2024-03-29T02:24:18;31.92;;;22.85;;
62574;SDS011;77629;45.630;11.704;2024-03-29T02:26:44;37.22;;;25.88;;
62574;SDS011;77629;45.630;11.704;2024-03-29T02:29:10;35.35;;;25.48;;
62574;SDS011;77629;45.630;11.704;2024-03-29T02:31:35;32.42;;;22.77;;
62574;SDS011;77629;45.630;11.704;2024-03-29T02:34:01;34.28;;;23.58;;
62574;SDS011;77629;45.630;11.704;2024-03-29T02:36:27;30.88;;;21.42;;
62574;SDS011;77629;45.630;11.704;2024-03-29T02:38:52;35.05;;;24.60;;
62574;SDS011;77629;45.630;11.704;2024-03-29T02:41:18;32.47;;;22.63;;
62574;SDS011;77629;45.630;11.704;2024-03-29T02:43:43;30.45;;;21.38;;
62574;SDS011;77629;45.630;11.704;2024-03-29T02:46:09;29.80;;;20.80;;
62574;SDS011;77629;45.630;11.704;2024-03-29T02:48:35;31.55;;;22.40;;
62574;SDS011;77629;45.630;11.704;2024-03-29T02:51:00;29.70;;;20.35;;
62574;SDS011;77629;45.630;11.704;2024-03-29T02:53:26;29.58;;;20.65;;
62574;SDS011;77629;45.630;11.704;2024-03-29T02:55:52;32.42;;;23.25;;
62574;SDS011;77629;45.630;11.704;2024-03-29T02:58:18;31.55;;;22.33;;
62574;SDS011;77629;45.630;11.704;2024-03-29T03:00:43;33.80;;;23.70;;
62574;SDS011;77629;45.630;11.704;2024-03-29T03:03:09;34.92;;;24.10;;
62574;SDS011;77629;45.630;11.704;2024-03-29T03:05:34;35.72;;;24.35;;
62574;SDS011;77629;45.630;11.704;2024-03-29T03:08:00;34.30;;;23.88;;
62574;SDS011;77629;45.630;11.704;2024-03-29T03:10:45;29.50;;;20.88;;
62574;SDS011;77629;45.630;11.704;2024-03-29T03:13:27;36.03;;;24.70;;
62574;SDS011;77629;45.630;11.704;2024-03-29T03:15:53;35.50;;;24.73;;
62574;SDS011;77629;45.630;11.704;2024-03-29T03:18:20;39.50;;;27.02;;
62574;SDS011;77629;45.630;11.704;2024-03-29T03:20:55;38.42;;;26.42;;
62574;SDS011;77629;45.630;11.704;2024-03-29T03:23:22;38.83;;;24.98;;
62574;SDS011;77629;45.630;11.704;2024-03-29T03:25:55;35.08;;;25.08;;
62574;SDS011;77629;45.630;11.704;2024-03-29T03:28:22;40.83;;;27.77;;
62574;SDS011;77629;45.630;11.704;2024-03-29T03:30:48;42.38;;;29.02;;
62574;SDS011;77629;45.630;11.704;2024-03-29T03:33:14;40.25;;;27.60;;
62574;SDS011;77629;45.630;11.704;2024-03-29T03:35:41;42.72;;;28.45;;
62574;SDS011;77629;45.630;11.704;2024-03-29T03:38:07;42.63;;;29.02;;
62574;SDS011;77629;45.630;11.704;2024-03-29T03:40:33;44.17;;;29.25;;
62574;SDS011;77629;45.630;11.704;2024-03-29T03:43:00;43.80;;;29.42;;
62574;SDS011;77629;45.630;11.704;2024-03-29T03:45:29;38.75;;;26.67;;
62574;SDS011;77629;45.630;11.704;2024-03-29T03:47:59;37.40;;;25.52;;
62574;SDS011;77629;45.630;11.704;2024-03-29T03:50:24;40.08;;;26.52;;
62574;SDS011;77629;45.630;11.704;2024-03-29T03:52:50;39.92;;;28.80;;
62574;SDS011;77629;45.630;11.704;2024-03-29T03:55:15;39.58;;;26.45;;
62574;SDS011;77629;45.630;11.704;2024-03-29T03:57:41;42.88;;;27.58;;
62574;SDS011;77629;45.630;11.704;2024-03-29T04:00:07;41.75;;;27.63;;
62574;SDS011;77629;45.630;11.704;2024-03-29T04:02:34;44.95;;;28.35;;
62574;SDS011;77629;45.630;11.704;2024-03-29T04:04:59;41.40;;;28.10;;
62574;SDS011;77629;45.630;11.704;2024-03-29T04:07:25;39.63;;;27.25;;
62574;SDS011;77629;45.630;11.704;2024-03-29T04:09:51;39.53;;;26.27;;
62574;SDS011;77629;45.630;11.704;2024-03-29T04:12:17;40.55;;;25.88;;
62574;SDS011;77629;45.630;11.704;2024-03-29T04:14:42;39.10;;;24.92;;
62574;SDS011;77629;45.630;11.704;2024-03-29T04:17:08;35.08;;;22.67;;
62574;SDS011;77629;45.630;11.704;2024-03-29T04:19:34;33.78;;;22.38;;
62574;SDS011;77629;45.630;11.704;2024-03-29T04:21:59;33.20;;;22.05;;
62574;SDS011;77629;45.630;11.704;2024-03-29T04:24:25;30.83;;;20.35;;
62574;SDS011;77629;45.630;11.704;2024-03-29T04:26:52;28.95;;;19.40;;
62574;SDS011;77629;45.630;11.704;2024-03-29T04:29:18;28.73;;;18.85;;
62574;SDS011;77629;45.630;11.704;2024-03-29T04:31:45;32.25;;;19.88;;
62574;SDS011;77629;45.630;11.704;2024-03-29T04:34:11;26.38;;;16.88;;
62574;SDS011;77629;45.630;11.704;2024-03-29T04:36:36;27.90;;;17.98;;
62574;SDS011;77629;45.630;11.704;2024-03-29T04:39:02;28.85;;;18.10;;
62574;SDS011;77629;45.630;11.704;2024-03-29T04:41:28;33.72;;;20.02;;
62574;SDS011;77629;45.630;11.704;2024-03-29T04:43:53;34.30;;;21.98;;
62574;SDS011;77629;45.630;11.704;2024-03-29T04:46:19;34.08;;;22.05;;
62574;SDS011;77629;45.630;11.704;2024-03-29T04:48:45;31.48;;;20.33;;
62574;SDS011;77629;45.630;11.704;2024-03-29T04:51:11;28.67;;;18.75;;
62574;SDS011;77629;45.630;11.704;2024-03-29T04:53:38;25.80;;;16.58;;
62574;SDS011;77629;45.630;11.704;2024-03-29T04:56:04;22.40;;;14.70;;
62574;SDS011;77629;45.630;11.704;2024-03-29T04:58:30;22.58;;;15.85;;
62574;SDS011;77629;45.630;11.704;2024-03-29T05:00:56;22.65;;;15.07;;
62574;SDS011;77629;45.630;11.704;2024-03-29T05:03:22;22.00;;;14.50;;
62574;SDS011;77629;45.630;11.704;2024-03-29T05:05:52;22.73;;;14.60;;
62574;SDS011;77629;45.630;11.704;2024-03-29T05:08:18;22.27;;;14.60;;
62574;SDS011;77629;45.630;11.704;2024-03-29T05:10:45;23.00;;;15.55;;
62574;SDS011;77629;45.630;11.704;2024-03-29T05:13:11;21.88;;;14.65;;
62574;SDS011;77629;45.630;11.704;2024-03-29T05:15:37;22.58;;;13.68;;
62574;SDS011;77629;45.630;11.704;2024-03-29T05:18:03;19.45;;;13.48;;
62574;SDS011;77629;45.630;11.704;2024-03-29T05:20:29;17.80;;;12.00;;
62574;SDS011;77629;45.630;11.704;2024-03-29T05:22:55;19.80;;;12.32;;
62574;SDS011;77629;45.630;11.704;2024-03-29T05:25:21;19.63;;;13.35;;
62574;SDS011;77629;45.630;11.704;2024-03-29T05:27:47;21.98;;;13.77;;
62574;SDS011;77629;45.630;11.704;2024-03-29T05:30:13;20.83;;;12.20;;
62574;SDS011;77629;45.630;11.704;2024-03-29T05:32:39;20.02;;;12.63;;
62574;SDS011;77629;45.630;11.704;2024-03-29T05:35:04;20.42;;;13.13;;
62574;SDS011;77629;45.630;11.704;2024-03-29T05:37:31;22.08;;;13.15;;
62574;SDS011;77629;45.630;11.704;2024-03-29T05:39:56;20.60;;;12.82;;
62574;SDS011;77629;45.630;11.704;2024-03-29T05:42:25;20.27;;;13.20;;
62574;SDS011;77629;45.630;11.704;2024-03-29T05:44:51;21.58;;;13.52;;
62574;SDS011;77629;45.630;11.704;2024-03-29T05:47:18;18.15;;;12.27;;
62574;SDS011;77629;45.630;11.704;2024-03-29T05:49:44;20.17;;;13.15;;
62574;SDS011;77629;45.630;11.704;2024-03-29T05:52:09;19.70;;;11.85;;
62574;SDS011;77629;45.630;11.704;2024-03-29T05:54:39;25.05;;;15.63;;
62574;SDS011;77629;45.630;11.704;2024-03-29T05:57:05;23.83;;;14.60;;
62574;SDS011;77629;45.630;11.704;2024-03-29T05:59:34;18.90;;;12.60;;
62574;SDS011;77629;45.630;11.704;2024-03-29T06:02:00;19.40;;;12.27;;
62574;SDS011;77629;45.630;11.704;2024-03-29T06:04:26;21.52;;;13.25;;
62574;SDS011;77629;45.630;11.704;2024-03-29T06:09:24;22.42;;;14.85;;
62574;SDS011;77629;45.630;11.704;2024-03-29T06:11:50;20.02;;;12.30;;
62574;SDS011;77629;45.630;11.704;2024-03-29T06:14:17;28.35;;;16.48;;
62574;SDS011;77629;45.630;11.704;2024-03-29T06:17:01;23.55;;;14.15;;
62574;SDS011;77629;45.630;11.704;2024-03-29T06:19:45;20.50;;;12.27;;
62574;SDS011;77629;45.630;11.704;2024-03-29T06:22:11;22.77;;;13.88;;
62574;SDS011;77629;45.630;11.704;2024-03-29T06:24:36;21.13;;;12.88;;
62574;SDS011;77629;45.630;11.704;2024-03-29T06:27:04;22.80;;;13.98;;
62574;SDS011;77629;45.630;11.704;2024-03-29T06:29:30;22.63;;;14.20;;
62574;SDS011;77629;45.630;11.704;2024-03-29T06:31:55;23.98;;;14.30;;
62574;SDS011;77629;45.630;11.704;2024-03-29T06:34:21;23.25;;;14.75;;
62574;SDS011;77629;45.630;11.704;2024-03-29T06:36:46;23.10;;;14.02;;
62574;SDS011;77629;45.630;11.704;2024-03-29T06:39:12;22.88;;;14.57;;
62574;SDS011;77629;45.630;11.704;2024-03-29T06:41:38;23.77;;;15.13;;
62574;SDS011;77629;45.630;11.704;2024-03-29T06:44:03;19.95;;;12.90;;
62574;SDS011;77629;45.630;11.704;2024-03-29T06:46:29;19.00;;;12.90;;
62574;SDS011;77629;45.630;11.704;2024-03-29T06:48:55;18.98;;;11.77;;
62574;SDS011;77629;45.630;11.704;2024-03-29T06:51:20;20.45;;;12.40;;
62574;SDS011;77629;45.630;11.704;2024-03-29T06:53:46;17.55;;;11.02;;
62574;SDS011;77629;45.630;11.704;2024-03-29T06:56:12;18.90;;;12.52;;
62574;SDS011;77629;45.630;11.704;2024-03-29T06:58:40;19.92;;;11.38;;
62574;SDS011;77629;45.630;11.704;2024-03-29T07:01:05;16.95;;;10.57;;
62574;SDS011;77629;45.630;11.704;2024-03-29T07:03:32;17.10;;;10.50;;
62574;SDS011;77629;45.630;11.704;2024-03-29T07:05:57;16.83;;;10.15;;
62574;SDS011;77629;45.630;11.704;2024-03-29T07:08:23;15.98;;;10.20;;
62574;SDS011;77629;45.630;11.704;2024-03-29T07:10:56;17.58;;;9.93;;
62574;SDS011;77629;45.630;11.704;2024-03-29T07:13:27;15.93;;;10.27;;
62574;SDS011;77629;45.630;11.704;2024-03-29T07:15:53;16.20;;;10.90;;
62574;SDS011;77629;45.630;11.704;2024-03-29T07:18:19;13.00;;;8.77;;
62574;SDS011;77629;45.630;11.704;2024-03-29T07:20:45;13.52;;;8.60;;
62574;SDS011;77629;45.630;11.704;2024-03-29T07:23:10;16.10;;;9.07;;
62574;SDS011;77629;45.630;11.704;2024-03-29T07:25:36;14.30;;;8.77;;
62574;SDS011;77629;45.630;11.704;2024-03-29T07:28:02;15.48;;;9.50;;
62574;SDS011;77629;45.630;11.704;2024-03-29T07:30:28;16.58;;;10.38;;
62574;SDS011;77629;45.630;11.704;2024-03-29T07:32:54;17.33;;;9.93;;
62574;SDS011;77629;45.630;11.704;2024-03-29T07:35:19;15.85;;;9.88;;
62574;SDS011;77629;45.630;11.704;2024-03-29T07:37:45;18.40;;;11.35;;
62574;SDS011;77629;45.630;11.704;2024-03-29T07:40:13;19.55;;;11.52;;
62574;SDS011;77629;45.630;11.704;2024-03-29T07:42:38;17.80;;;10.77;;
62574;SDS011;77629;45.630;11.704;2024-03-29T07:45:04;18.45;;;10.52;;
62574;SDS011;77629;45.630;11.704;2024-03-29T07:47:30;16.75;;;10.55;;
62574;SDS011;77629;45.630;11.704;2024-03-29T07:49:56;17.80;;;11.13;;
62574;SDS011;77629;45.630;11.704;2024-03-29T07:52:22;14.98;;;9.85;;
62574;SDS011;77629;45.630;11.704;2024-03-29T07:54:48;16.88;;;10.35;;
62574;SDS011;77629;45.630;11.704;2024-03-29T07:57:14;15.27;;;9.10;;
62574;SDS011;77629;45.630;11.704;2024-03-29T07:59:41;16.30;;;10.43;;
62574;SDS011;77629;45.630;11.704;2024-03-29T08:02:07;15.63;;;9.95;;
62574;SDS011;77629;45.630;11.704;2024-03-29T08:04:32;14.35;;;8.40;;
62574;SDS011;77629;45.630;11.704;2024-03-29T08:06:59;11.18;;;7.28;;
62574;SDS011;77629;45.630;11.704;2024-03-29T08:09:24;11.25;;;7.03;;
62574;SDS011;77629;45.630;11.704;2024-03-29T08:11:50;8.77;;;6.00;;
62574;SDS011;77629;45.630;11.704;2024-03-29T08:14:15;11.43;;;6.53;;
62574;SDS011;77629;45.630;11.704;2024-03-29T08:16:41;9.18;;;6.00;;
62574;SDS011;77629;45.630;11.704;2024-03-29T08:19:07;12.30;;;6.60;;
62574;SDS011;77629;45.630;11.704;2024-03-29T08:21:33;11.32;;;6.70;;
62574;SDS011;77629;45.630;11.704;2024-03-29T08:23:59;11.07;;;6.90;;
62574;SDS011;77629;45.630;11.704;2024-03-29T08:26:26;9.52;;;6.32;;
62574;SDS011;77629;45.630;11.704;2024-03-29T08:28:54;9.82;;;6.28;;
62574;SDS011;77629;45.630;11.704;2024-03-29T08:31:19;10.20;;;6.32;;
62574;SDS011;77629;45.630;11.704;2024-03-29T08:33:45;12.18;;;6.68;;
62574;SDS011;77629;45.630;11.704;2024-03-29T08:36:11;12.35;;;6.85;;
62574;SDS011;77629;45.630;11.704;2024-03-29T08:38:37;12.75;;;6.88;;
62574;SDS011;77629;45.630;11.704;2024-03-29T08:41:06;13.98;;;7.93;;
62574;SDS011;77629;45.630;11.704;2024-03-29T08:43:32;13.10;;;7.38;;
62574;SDS011;77629;45.630;11.704;2024-03-29T08:45:58;9.90;;;6.03;;
62574;SDS011;77629;45.630;11.704;2024-03-29T08:51:47;13.93;;;7.40;;
62574;SDS011;77629;45.630;11.704;2024-03-29T08:54:13;12.05;;;7.07;;
62574;SDS011;77629;45.630;11.704;2024-03-29T08:56:38;12.35;;;7.70;;
62574;SDS011;77629;45.630;11.704;2024-03-29T08:59:05;10.98;;;7.43;;
62574;SDS011;77629;45.630;11.704;2024-03-29T09:01:38;15.85;;;9.30;;
62574;SDS011;77629;45.630;11.704;2024-03-29T09:04:09;12.57;;;8.20;;
62574;SDS011;77629;45.630;11.704;2024-03-29T09:06:36;13.18;;;8.68;;
62574;SDS011;77629;45.630;11.704;2024-03-29T09:09:03;11.60;;;7.78;;
62574;SDS011;77629;45.630;11.704;2024-03-29T09:11:29;12.40;;;8.13;;
62574;SDS011;77629;45.630;11.704;2024-03-29T09:13:55;13.35;;;8.68;;
62574;SDS011;77629;45.630;11.704;2024-03-29T09:16:23;11.93;;;7.97;;
62574;SDS011;77629;45.630;11.704;2024-03-29T09:18:54;15.65;;;9.85;;
62574;SDS011;77629;45.630;11.704;2024-03-29T09:21:19;12.15;;;7.78;;
62574;SDS011;77629;45.630;11.704;2024-03-29T09:23:45;13.63;;;8.27;;
62574;SDS011;77629;45.630;11.704;2024-03-29T09:29:35;11.43;;;7.10;;
62574;SDS011;77629;45.630;11.704;2024-03-29T09:32:01;11.68;;;7.43;;
62574;SDS011;77629;45.630;11.704;2024-03-29T09:34:30;11.48;;;6.70;;
62574;SDS011;77629;45.630;11.704;2024-03-29T09:36:58;10.60;;;7.10;;
62574;SDS011;77629;45.630;11.704;2024-03-29T09:39:24;11.63;;;7.10;;
62574;SDS011;77629;45.630;11.704;2024-03-29T09:41:49;11.90;;;6.82;;
62574;SDS011;77629;45.630;11.704;2024-03-29T09:44:15;11.05;;;6.78;;
62574;SDS011;77629;45.630;11.704;2024-03-29T09:46:42;9.20;;;6.55;;
62574;SDS011;77629;45.630;11.704;2024-03-29T09:49:08;10.35;;;7.07;;
62574;SDS011;77629;45.630;11.704;2024-03-29T09:51:37;9.82;;;7.03;;
62574;SDS011;77629;45.630;11.704;2024-03-29T09:54:04;10.93;;;7.45;;
62574;SDS011;77629;45.630;11.704;2024-03-29T09:56:33;12.52;;;7.60;;
62574;SDS011;77629;45.630;11.704;2024-03-29T09:58:59;10.23;;;6.97;;
62574;SDS011;77629;45.630;11.704;2024-03-29T10:01:26;9.27;;;6.50;;
62574;SDS011;77629;45.630;11.704;2024-03-29T10:03:53;11.07;;;7.70;;
62574;SDS011;77629;45.630;11.704;2024-03-29T10:06:18;10.07;;;6.57;;
62574;SDS011;77629;45.630;11.704;2024-03-29T10:08:45;9.75;;;6.57;;
62574;SDS011;77629;45.630;11.704;2024-03-29T10:11:12;8.90;;;5.50;;
62574;SDS011;77629;45.630;11.704;2024-03-29T10:13:41;10.60;;;6.30;;
62574;SDS011;77629;45.630;11.704;2024-03-29T10:16:09;11.40;;;6.65;;
62574;SDS011;77629;45.630;11.704;2024-03-29T10:18:36;9.32;;;6.65;;
62574;SDS011;77629;45.630;11.704;2024-03-29T10:21:02;11.63;;;6.32;;
62574;SDS011;77629;45.630;11.704;2024-03-29T10:23:32;10.93;;;6.03;;
62574;SDS011;77629;45.630;11.704;2024-03-29T10:26:00;9.70;;;6.38;;
62574;SDS011;77629;45.630;11.704;2024-03-29T10:28:35;8.98;;;5.07;;
62574;SDS011;77629;45.630;11.704;2024-03-29T10:31:02;8.82;;;5.30;;
62574;SDS011;77629;45.630;11.704;2024-03-29T10:33:29;8.23;;;4.75;;
62574;SDS011;77629;45.630;11.704;2024-03-29T10:35:55;7.50;;;4.68;;
62574;SDS011;77629;45.630;11.704;2024-03-29T10:38:24;8.45;;;5.28;;
62574;SDS011;77629;45.630;11.704;2024-03-29T10:40:49;9.90;;;5.55;;
62574;SDS011;77629;45.630;11.704;2024-03-29T10:43:17;8.68;;;5.65;;
62574;SDS011;77629;45.630;11.704;2024-03-29T10:45:44;7.60;;;4.88;;
62574;SDS011;77629;45.630;11.704;2024-03-29T10:48:11;9.30;;;5.68;;
62574;SDS011;77629;45.630;11.704;2024-03-29T10:50:40;9.98;;;5.35;;
62574;SDS011;77629;45.630;11.704;2024-03-29T10:53:07;8.50;;;4.75;;
62574;SDS011;77629;45.630;11.704;2024-03-29T10:55:35;7.85;;;4.68;;
62574;SDS011;77629;45.630;11.704;2024-03-29T10:58:03;7.57;;;4.50;;
62574;SDS011;77629;45.630;11.704;2024-03-29T11:00:33;6.45;;;4.10;;
62574;SDS011;77629;45.630;11.704;2024-03-29T11:03:16;8.40;;;4.70;;
62574;SDS011;77629;45.630;11.704;2024-03-29T11:05:53;5.82;;;3.20;;
62574;SDS011;77629;45.630;11.704;2024-03-29T11:08:26;4.43;;;2.65;;
62574;SDS011;77629;45.630;11.704;2024-03-29T11:10:57;5.18;;;2.75;;
62574;SDS011;77629;45.630;11.704;2024-03-29T11:13:38;5.18;;;2.65;;
62574;SDS011;77629;45.630;11.704;2024-03-29T11:16:05;5.40;;;2.70;;
62574;SDS011;77629;45.630;11.704;2024-03-29T11:18:32;8.50;;;2.60;;
62574;SDS011;77629;45.630;11.704;2024-03-29T11:21:00;6.35;;;2.58;;
62574;SDS011;77629;45.630;11.704;2024-03-29T11:23:27;4.75;;;2.55;;
62574;SDS011;77629;45.630;11.704;2024-03-29T11:25:56;4.43;;;3.00;;
62574;SDS011;77629;45.630;11.704;2024-03-29T11:28:31;5.90;;;2.63;;
62574;SDS011;77629;45.630;11.704;2024-03-29T11:33:32;7.47;;;3.65;;
62574;SDS011;77629;45.630;11.704;2024-03-29T11:36:00;8.77;;;3.88;;
62574;SDS011;77629;45.630;11.704;2024-03-29T11:38:34;7.35;;;3.75;;
62574;SDS011;77629;45.630;11.704;2024-03-29T11:41:10;7.38;;;3.90;;
62574;SDS011;77629;45.630;11.704;2024-03-29T11:43:42;7.28;;;4.63;;
62574;SDS011;77629;45.630;11.704;2024-03-29T11:46:09;7.70;;;4.93;;
62574;SDS011;77629;45.630;11.704;2024-03-29T11:48:36;8.57;;;5.28;;
62574;SDS011;77629;45.630;11.704;2024-03-29T11:51:03;9.45;;;5.10;;
62574;SDS011;77629;45.630;11.704;2024-03-29T11:53:30;9.25;;;4.90;;
62574;SDS011;77629;45.630;11.704;2024-03-29T11:56:00;7.35;;;4.20;;
62574;SDS011;77629;45.630;11.704;2024-03-29T11:58:29;7.07;;;4.28;;
62574;SDS011;77629;45.630;11.704;2024-03-29T12:00:56;7.53;;;3.60;;
62574;SDS011;77629;45.630;11.704;2024-03-29T12:03:25;8.40;;;4.07;;
62574;SDS011;77629;45.630;11.704;2024-03-29T12:05:52;5.32;;;2.70;;
62574;SDS011;77629;45.630;11.704;2024-03-29T12:08:19;5.40;;;2.40;;
62574;SDS011;77629;45.630;11.704;2024-03-29T12:10:46;7.22;;;2.75;;
62574;SDS011;77629;45.630;11.704;2024-03-29T12:13:14;5.93;;;2.65;;
62574;SDS011;77629;45.630;11.704;2024-03-29T12:15:41;6.88;;;2.90;;
62574;SDS011;77629;45.630;11.704;2024-03-29T12:18:07;6.15;;;3.00;;
62574;SDS011;77629;45.630;11.704;2024-03-29T12:20:32;5.80;;;3.20;;
62574;SDS011;77629;45.630;11.704;2024-03-29T12:22:59;5.60;;;3.20;;
62574;SDS011;77629;45.630;11.704;2024-03-29T12:25:29;5.60;;;3.13;;
62574;SDS011;77629;45.630;11.704;2024-03-29T12:27:56;6.78;;;3.30;;
62574;SDS011;77629;45.630;11.704;2024-03-29T12:30:22;7.32;;;3.47;;
62574;SDS011;77629;45.630;11.704;2024-03-29T12:32:59;7.30;;;3.83;;
62574;SDS011;77629;45.630;11.704;2024-03-29T12:35:28;7.53;;;3.70;;
62574;SDS011;77629;45.630;11.704;2024-03-29T12:37:57;8.70;;;3.97;;
62574;SDS011;77629;45.630;11.704;2024-03-29T12:40:24;6.95;;;3.50;;
62574;SDS011;77629;45.630;11.704;2024-03-29T12:42:50;7.32;;;3.40;;
62574;SDS011;77629;45.630;11.704;2024-03-29T12:45:20;7.95;;;3.67;;
62574;SDS011;77629;45.630;11.704;2024-03-29T12:47:46;8.57;;;4.18;;
62574;SDS011;77629;45.630;11.704;2024-03-29T12:50:13;8.30;;;3.78;;
62574;SDS011;77629;45.630;11.704;2024-03-29T12:52:57;9.57;;;4.20;;
62574;SDS011;77629;45.630;11.704;2024-03-29T12:55:24;8.35;;;4.70;;
62574;SDS011;77629;45.630;11.704;2024-03-29T12:57:53;8.52;;;3.80;;
62574;SDS011;77629;45.630;11.704;2024-03-29T13:00:19;9.68;;;4.22;;
62574;SDS011;77629;45.630;11.704;2024-03-29T13:02:45;8.73;;;4.00;;
62574;SDS011;77629;45.630;11.704;2024-03-29T13:05:11;8.65;;;4.10;;
62574;SDS011;77629;45.630;11.704;2024-03-29T13:07:36;8.88;;;4.07;;
62574;SDS011;77629;45.630;11.704;2024-03-29T13:10:03;7.65;;;3.45;;
62574;SDS011;77629;45.630;11.704;2024-03-29T13:12:38;9.70;;;4.57;;
62574;SDS011;77629;45.630;11.704;2024-03-29T13:15:15;8.55;;;3.78;;
62574;SDS011;77629;45.630;11.704;2024-03-29T13:17:42;9.30;;;4.20;;
62574;SDS011;77629;45.630;11.704;2024-03-29T13:20:08;9.15;;;4.35;;
62574;SDS011;77629;45.630;11.704;2024-03-29T13:22:35;7.18;;;3.40;;
62574;SDS011;77629;45.630;11.704;2024-03-29T13:25:02;10.48;;;3.88;;
62574;SDS011;77629;45.630;11.704;2024-03-29T13:27:30;12.85;;;4.25;;
62574;SDS011;77629;45.630;11.704;2024-03-29T13:29:56;11.85;;;4.28;;
62574;SDS011;77629;45.630;11.704;2024-03-29T13:32:21;8.23;;;3.75;;
62574;SDS011;77629;45.630;11.704;2024-03-29T13:34:47;12.93;;;3.47;;
62574;SDS011;77629;45.630;11.704;2024-03-29T13:37:12;10.30;;;3.60;;
62574;SDS011;77629;45.630;11.704;2024-03-29T13:39:38;12.80;;;3.60;;
62574;SDS011;77629;45.630;11.704;2024-03-29T13:42:04;12.77;;;4.22;;
62574;SDS011;77629;45.630;11.704;2024-03-29T13:44:30;8.90;;;3.10;;
62574;SDS011;77629;45.630;11.704;2024-03-29T13:46:57;9.65;;;3.40;;
62574;SDS011;77629;45.630;11.704;2024-03-29T13:49:23;12.90;;;3.80;;
62574;SDS011;77629;45.630;11.704;2024-03-29T13:51:55;12.90;;;4.25;;
62574;SDS011;77629;45.630;11.704;2024-03-29T13:54:21;10.27;;;3.25;;
62574;SDS011;77629;45.630;11.704;2024-03-29T13:56:48;9.77;;;3.45;;
62574;SDS011;77629;45.630;11.704;2024-03-29T13:59:13;8.48;;;3.10;;
62574;SDS011;77629;45.630;11.704;2024-03-29T14:01:39;10.07;;;3.33;;
62574;SDS011;77629;45.630;11.704;2024-03-29T14:04:04;7.65;;;3.38;;
62574;SDS011;77629;45.630;11.704;2024-03-29T14:06:30;9.20;;;3.55;;
62574;SDS011;77629;45.630;11.704;2024-03-29T14:08:56;11.15;;;3.40;;
62574;SDS011;77629;45.630;11.704;2024-03-29T14:11:22;8.65;;;3.65;;
62574;SDS011;77629;45.630;11.704;2024-03-29T14:13:47;8.07;;;3.00;;
62574;SDS011;77629;45.630;11.704;2024-03-29T14:16:16;9.20;;;3.15;;
62574;SDS011;77629;45.630;11.704;2024-03-29T14:18:41;8.10;;;3.20;;
62574;SDS011;77629;45.630;11.704;2024-03-29T14:21:08;10.23;;;3.58;;
62574;SDS011;77629;45.630;11.704;2024-03-29T14:23:34;11.55;;;3.42;;
62574;SDS011;77629;45.630;11.704;2024-03-29T14:26:01;9.00;;;3.53;;
62574;SDS011;77629;45.630;11.704;2024-03-29T14:28:29;9.93;;;3.25;;